sensor_id;sensor_type;location;lat;lon;timestamp;pressure;altitude;pressure_sealevel;temperature;humidity
39405;BME280;25121;51.090;17.038;2023-04-25T04:20:47;99188.13;;;11.07;61.32
39405;BME280;25121;51.090;17.038;2023-04-25T04:22:10;99184.81;;;11.05;61.22
39405;BME280;25121;51.090;17.038;2023-04-25T04:23:34;99191.88;;;11.12;60.94
39405;BME280;25121;51.090;17.038;2023-04-25T04:25:04;99184.84;;;11.11;60.81
39405;BME280;25121;51.090;17.038;2023-04-25T04:27:12;99179.66;;;11.10;60.62
39405;BME280;25121;51.090;17.038;2023-04-25T04:31:19;99174.97;;;11.18;60.79
39405;BME280;25121;51.090;17.038;2023-04-25T04:33:09;99176.41;;;11.21;60.91
39405;BME280;25121;51.090;17.038;2023-04-25T04:34:44;99190.31;;;11.31;61.02
39405;BME280;25121;51.090;17.038;2023-04-25T04:36:19;99186.38;;;11.34;60.67
39405;BME280;25121;51.090;17.038;2023-04-25T04:37:53;99173.34;;;11.31;60.70
39405;BME280;25121;51.090;17.038;2023-04-25T04:39:19;99188.47;;;11.38;60.75
39405;BME280;25121;51.090;17.038;2023-04-25T04:40:55;99176.88;;;11.38;60.38
39405;BME280;25121;51.090;17.038;2023-04-25T04:43:45;99192.41;;;11.49;60.01
39405;BME280;25121;51.090;17.038;2023-04-25T04:45:37;99190.34;;;11.51;59.96
39405;BME280;25121;51.090;17.038;2023-04-25T04:53:49;99193.50;;;11.68;59.62
39405;BME280;25121;51.090;17.038;2023-04-25T04:55:50;99183.75;;;11.67;59.33
39405;BME280;25121;51.090;17.038;2023-04-25T04:57:42;99192.06;;;11.79;59.06
39405;BME280;25121;51.090;17.038;2023-04-25T04:59:12;99181.28;;;11.79;59.05
39405;BME280;25121;51.090;17.038;2023-04-25T05:06:36;99180.31;;;12.06;58.18
39405;BME280;25121;51.090;17.038;2023-04-25T06:45:47;99182.66;;;18.15;43.38
39405;BME280;25121;51.090;17.038;2023-04-25T08:24:58;99183.63;;;22.23;31.88
39405;BME280;25121;51.090;17.038;2023-04-25T08:26:51;99191.25;;;22.05;32.37
39405;BME280;25121;51.090;17.038;2023-04-25T08:28:17;99187.97;;;22.03;31.89
39405;BME280;25121;51.090;17.038;2023-04-25T08:29:41;99180.56;;;21.78;32.16
39405;BME280;25121;51.090;17.038;2023-04-25T08:31:18;99186.25;;;21.51;32.34
39405;BME280;25121;51.090;17.038;2023-04-25T08:32:56;99195.22;;;21.41;32.24
39405;BME280;25121;51.090;17.038;2023-04-25T08:34:51;99184.94;;;21.69;32.06
39405;BME280;25121;51.090;17.038;2023-04-25T08:38:48;99193.44;;;22.70;31.66
39405;BME280;25121;51.090;17.038;2023-04-25T08:40:19;99205.22;;;22.70;31.21
39405;BME280;25121;51.090;17.038;2023-04-25T08:41:59;99196.91;;;23.16;30.28
39405;BME280;25121;51.090;17.038;2023-04-25T08:43:30;99207.28;;;23.84;29.72
39405;BME280;25121;51.090;17.038;2023-04-25T08:44:59;99198.28;;;23.74;29.51
39405;BME280;25121;51.090;17.038;2023-04-25T08:46:30;99200.72;;;23.80;29.76
39405;BME280;25121;51.090;17.038;2023-04-25T08:48:14;99191.72;;;24.43;29.37
39405;BME280;25121;51.090;17.038;2023-04-25T08:49:41;99198.22;;;24.23;29.37
39405;BME280;25121;51.090;17.038;2023-04-25T08:51:07;99198.78;;;23.86;29.44
39405;BME280;25121;51.090;17.038;2023-04-25T08:52:36;99200.59;;;23.51;29.42
39405;BME280;25121;51.090;17.038;2023-04-25T08:54:08;99191.75;;;23.05;29.87
39405;BME280;25121;51.090;17.038;2023-04-25T08:55:41;99194.25;;;22.70;30.12
39405;BME280;25121;51.090;17.038;2023-04-25T08:57:05;99203.09;;;22.31;30.75
39405;BME280;25121;51.090;17.038;2023-04-25T08:58:30;99199.19;;;21.86;31.04
39405;BME280;25121;51.090;17.038;2023-04-25T08:59:54;99212.50;;;21.52;31.88
39405;BME280;25121;51.090;17.038;2023-04-25T09:01:19;99211.25;;;21.17;32.16
39405;BME280;25121;51.090;17.038;2023-04-25T09:02:47;99200.00;;;21.14;32.26
39405;BME280;25121;51.090;17.038;2023-04-25T09:04:11;99208.97;;;21.52;31.60
39405;BME280;25121;51.090;17.038;2023-04-25T09:05:45;99213.94;;;23.03;30.69
39405;BME280;25121;51.090;17.038;2023-04-25T09:07:09;99200.59;;;24.35;29.72
39405;BME280;25121;51.090;17.038;2023-04-25T09:08:49;99190.13;;;27.40;27.43
39405;BME280;25121;51.090;17.038;2023-04-25T09:10:13;99201.97;;;28.50;26.70
39405;BME280;25121;51.090;17.038;2023-04-25T09:11:39;99201.69;;;27.79;26.59
39405;BME280;25121;51.090;17.038;2023-04-25T09:13:09;99207.16;;;27.15;26.36
39405;BME280;25121;51.090;17.038;2023-04-25T09:15:07;99211.63;;;26.69;26.35
39405;BME280;25121;51.090;17.038;2023-04-25T09:17:08;99206.22;;;25.93;26.32
39405;BME280;25121;51.090;17.038;2023-04-25T09:18:34;99202.75;;;25.45;26.58
39405;BME280;25121;51.090;17.038;2023-04-25T09:20:07;99206.28;;;25.26;26.59
39405;BME280;25121;51.090;17.038;2023-04-25T09:21:34;99204.25;;;28.11;24.99
39405;BME280;25121;51.090;17.038;2023-04-25T09:23:05;99196.88;;;30.59;22.06
39405;BME280;25121;51.090;17.038;2023-04-25T09:24:31;99205.22;;;32.28;21.29
39405;BME280;25121;51.090;17.038;2023-04-25T09:25:59;99206.16;;;33.88;19.60
39405;BME280;25121;51.090;17.038;2023-04-25T09:27:26;99211.69;;;35.84;17.97
39405;BME280;25121;51.090;17.038;2023-04-25T09:29:12;99211.56;;;37.50;17.25
39405;BME280;25121;51.090;17.038;2023-04-25T09:30:36;99202.31;;;37.73;16.39
39405;BME280;25121;51.090;17.038;2023-04-25T09:32:26;99225.06;;;38.62;16.06
39405;BME280;25121;51.090;17.038;2023-04-25T09:34:01;99218.81;;;38.42;15.82
39405;BME280;25121;51.090;17.038;2023-04-25T09:35:39;99218.00;;;37.78;15.99
39405;BME280;25121;51.090;17.038;2023-04-25T09:37:08;99214.88;;;36.21;16.68
39405;BME280;25121;51.090;17.038;2023-04-25T09:38:54;99230.22;;;34.78;17.15
39405;BME280;25121;51.090;17.038;2023-04-25T09:40:21;99228.53;;;33.52;17.45
39405;BME280;25121;51.090;17.038;2023-04-25T09:41:59;99222.63;;;32.16;18.27
39405;BME280;25121;51.090;17.038;2023-04-25T09:43:24;99213.81;;;31.13;19.01
39405;BME280;25121;51.090;17.038;2023-04-25T09:44:47;99223.63;;;30.20;19.56
39405;BME280;25121;51.090;17.038;2023-04-25T09:46:11;99225.81;;;29.39;20.41
39405;BME280;25121;51.090;17.038;2023-04-25T09:47:44;99208.47;;;28.54;20.90
39405;BME280;25121;51.090;17.038;2023-04-25T09:49:10;99214.22;;;27.99;21.28
39405;BME280;25121;51.090;17.038;2023-04-25T09:51:05;99217.88;;;27.16;22.14
39405;BME280;25121;51.090;17.038;2023-04-25T09:52:29;99216.41;;;26.45;23.11
39405;BME280;25121;51.090;17.038;2023-04-25T09:54:10;99230.88;;;25.61;24.01
39405;BME280;25121;51.090;17.038;2023-04-25T09:55:41;99228.75;;;25.09;24.17
39405;BME280;25121;51.090;17.038;2023-04-25T09:57:11;99217.72;;;24.56;24.63
39405;BME280;25121;51.090;17.038;2023-04-25T09:58:36;99224.91;;;24.18;25.05
39405;BME280;25121;51.090;17.038;2023-04-25T10:00:00;99222.16;;;23.68;25.57
39405;BME280;25121;51.090;17.038;2023-04-25T10:01:34;99225.41;;;23.20;26.34
39405;BME280;25121;51.090;17.038;2023-04-25T10:03:05;99229.81;;;22.96;27.23
39405;BME280;25121;51.090;17.038;2023-04-25T10:04:51;99223.81;;;22.99;26.95
39405;BME280;25121;51.090;17.038;2023-04-25T10:06:23;99230.59;;;23.22;27.02
39405;BME280;25121;51.090;17.038;2023-04-25T10:07:47;99223.81;;;23.04;27.21
39405;BME280;25121;51.090;17.038;2023-04-25T10:09:11;99225.44;;;23.05;27.58
39405;BME280;25121;51.090;17.038;2023-04-25T10:10:34;99222.38;;;23.17;27.87
39405;BME280;25121;51.090;17.038;2023-04-25T10:12:04;99227.88;;;23.12;27.79
39405;BME280;25121;51.090;17.038;2023-04-25T10:13:32;99222.34;;;23.87;27.50
39405;BME280;25121;51.090;17.038;2023-04-25T10:15:11;99217.47;;;24.82;26.55
39405;BME280;25121;51.090;17.038;2023-04-25T10:16:40;99229.06;;;26.64;24.85
39405;BME280;25121;51.090;17.038;2023-04-25T10:18:05;99217.81;;;28.22;23.11
39405;BME280;25121;51.090;17.038;2023-04-25T10:19:31;99218.84;;;29.59;22.48
39405;BME280;25121;51.090;17.038;2023-04-25T10:20:59;99229.25;;;30.84;21.82
39405;BME280;25121;51.090;17.038;2023-04-25T10:22:28;99236.06;;;31.34;21.53
39405;BME280;25121;51.090;17.038;2023-04-25T10:23:58;99225.97;;;31.29;20.88
39405;BME280;25121;51.090;17.038;2023-04-25T10:25:26;99223.16;;;31.00;21.23
39405;BME280;25121;51.090;17.038;2023-04-25T10:29:16;99209.47;;;30.39;20.88
39405;BME280;25121;51.090;17.038;2023-04-25T10:55:14;99201.91;;;25.87;23.83
39405;BME280;25121;51.090;17.038;2023-04-25T10:56:38;99205.53;;;25.83;24.12
39405;BME280;25121;51.090;17.038;2023-04-25T10:58:01;99208.25;;;25.64;24.20
39405;BME280;25121;51.090;17.038;2023-04-25T11:02:46;99194.31;;;24.64;25.19
39405;BME280;25121;51.090;17.038;2023-04-25T11:04:26;99196.69;;;24.41;25.54
39405;BME280;25121;51.090;17.038;2023-04-25T11:06:03;99194.84;;;23.97;25.74
39405;BME280;25121;51.090;17.038;2023-04-25T11:07:34;99189.25;;;23.73;25.84
39405;BME280;25121;51.090;17.038;2023-04-25T11:09:01;99192.03;;;23.63;25.84
39405;BME280;25121;51.090;17.038;2023-04-25T11:10:30;99195.69;;;23.48;25.86
39405;BME280;25121;51.090;17.038;2023-04-25T11:11:58;99199.84;;;23.30;26.08
39405;BME280;25121;51.090;17.038;2023-04-25T11:13:29;99194.09;;;23.32;26.17
39405;BME280;25121;51.090;17.038;2023-04-25T11:14:59;99195.72;;;23.43;26.11
39405;BME280;25121;51.090;17.038;2023-04-25T11:16:24;99206.34;;;23.50;25.66
39405;BME280;25121;51.090;17.038;2023-04-25T11:17:50;99200.56;;;23.56;25.71
39405;BME280;25121;51.090;17.038;2023-04-25T11:19:13;99199.22;;;23.54;25.38
39405;BME280;25121;51.090;17.038;2023-04-25T11:20:37;99201.41;;;23.52;26.33
39405;BME280;25121;51.090;17.038;2023-04-25T11:22:03;99196.81;;;23.37;26.37
39405;BME280;25121;51.090;17.038;2023-04-25T11:23:36;99210.03;;;23.25;26.09
39405;BME280;25121;51.090;17.038;2023-04-25T11:25:08;99195.03;;;23.02;26.70
39405;BME280;25121;51.090;17.038;2023-04-25T11:26:57;99196.72;;;22.82;26.89
39405;BME280;25121;51.090;17.038;2023-04-25T11:28:33;99206.31;;;22.69;26.74
39405;BME280;25121;51.090;17.038;2023-04-25T11:30:16;99191.00;;;22.43;27.21
39405;BME280;25121;51.090;17.038;2023-04-25T11:32:15;99197.28;;;22.07;27.53
39405;BME280;25121;51.090;17.038;2023-04-25T11:34:04;99201.88;;;21.66;28.09
39405;BME280;25121;51.090;17.038;2023-04-25T11:35:30;99203.66;;;21.29;28.46
39405;BME280;25121;51.090;17.038;2023-04-25T11:36:57;99204.38;;;21.04;29.12
39405;BME280;25121;51.090;17.038;2023-04-25T11:38:22;99211.34;;;20.85;29.51
39405;BME280;25121;51.090;17.038;2023-04-25T11:39:47;99209.53;;;20.58;29.12
39405;BME280;25121;51.090;17.038;2023-04-25T11:41:10;99216.22;;;20.40;29.08
39405;BME280;25121;51.090;17.038;2023-04-25T11:42:38;99197.41;;;20.12;29.31
39405;BME280;25121;51.090;17.038;2023-04-25T11:44:06;99209.03;;;20.02;29.31
39405;BME280;25121;51.090;17.038;2023-04-25T11:45:37;99195.59;;;20.22;28.91
39405;BME280;25121;51.090;17.038;2023-04-25T11:47:02;99209.97;;;20.45;28.41
39405;BME280;25121;51.090;17.038;2023-04-25T11:48:28;99210.28;;;20.54;28.07
39405;BME280;25121;51.090;17.038;2023-04-25T11:50:09;99206.91;;;20.74;28.39
39405;BME280;25121;51.090;17.038;2023-04-25T11:51:38;99204.84;;;20.96;28.21
39405;BME280;25121;51.090;17.038;2023-04-25T11:53:05;99201.91;;;21.08;28.01
39405;BME280;25121;51.090;17.038;2023-04-25T11:54:28;99202.28;;;21.27;27.83
39405;BME280;25121;51.090;17.038;2023-04-25T11:55:54;99207.28;;;21.45;27.70
39405;BME280;25121;51.090;17.038;2023-04-25T11:57:21;99197.50;;;21.60;27.98
39405;BME280;25121;51.090;17.038;2023-04-25T11:58:59;99208.19;;;21.71;27.85
39405;BME280;25121;51.090;17.038;2023-04-25T12:00:25;99205.75;;;21.85;27.74
39405;BME280;25121;51.090;17.038;2023-04-25T12:01:57;99199.19;;;21.91;27.58
39405;BME280;25121;51.090;17.038;2023-04-25T12:03:22;99205.50;;;21.92;27.45
39405;BME280;25121;51.090;17.038;2023-04-25T12:04:50;99202.44;;;21.88;26.88
39405;BME280;25121;51.090;17.038;2023-04-25T12:06:17;99201.63;;;21.83;26.83
39405;BME280;25121;51.090;17.038;2023-04-25T12:07:48;99199.16;;;21.76;27.42
39405;BME280;25121;51.090;17.038;2023-04-25T12:09:51;99200.50;;;21.68;27.55
39405;BME280;25121;51.090;17.038;2023-04-25T12:11:20;99192.56;;;21.52;27.72
39405;BME280;25121;51.090;17.038;2023-04-25T12:12:46;99205.13;;;21.53;27.69
39405;BME280;25121;51.090;17.038;2023-04-25T12:14:20;99204.50;;;21.35;27.94
39405;BME280;25121;51.090;17.038;2023-04-25T12:15:45;99211.53;;;21.21;27.73
39405;BME280;25121;51.090;17.038;2023-04-25T12:17:11;99199.69;;;21.00;27.87
39405;BME280;25121;51.090;17.038;2023-04-25T12:18:42;99205.59;;;20.81;28.02
39405;BME280;25121;51.090;17.038;2023-04-25T12:20:15;99202.63;;;20.51;28.10
39405;BME280;25121;51.090;17.038;2023-04-25T12:21:41;99197.25;;;20.23;28.36
39405;BME280;25121;51.090;17.038;2023-04-25T12:23:10;99212.91;;;20.06;28.75
39405;BME280;25121;51.090;17.038;2023-04-25T12:24:48;99218.53;;;19.94;29.02
39405;BME280;25121;51.090;17.038;2023-04-25T12:26:51;99209.44;;;19.84;28.99
39405;BME280;25121;51.090;17.038;2023-04-25T12:28:15;99200.69;;;19.82;28.91
39405;BME280;25121;51.090;17.038;2023-04-25T12:29:50;99218.31;;;20.01;29.07
39405;BME280;25121;51.090;17.038;2023-04-25T12:31:16;99215.06;;;20.04;28.85
39405;BME280;25121;51.090;17.038;2023-04-25T12:32:41;99215.47;;;20.18;29.01
39405;BME280;25121;51.090;17.038;2023-04-25T12:34:03;99217.44;;;20.22;28.47
39405;BME280;25121;51.090;17.038;2023-04-25T12:35:28;99216.16;;;20.35;28.88
39405;BME280;25121;51.090;17.038;2023-04-25T12:36:56;99211.03;;;20.44;29.00
39405;BME280;25121;51.090;17.038;2023-04-25T12:38:27;99221.84;;;20.61;28.75
39405;BME280;25121;51.090;17.038;2023-04-25T12:39:53;99221.38;;;20.74;28.77
39405;BME280;25121;51.090;17.038;2023-04-25T12:41:20;99214.38;;;20.89;28.46
39405;BME280;25121;51.090;17.038;2023-04-25T12:42:54;99212.56;;;21.04;28.38
39405;BME280;25121;51.090;17.038;2023-04-25T12:44:21;99214.53;;;21.19;27.88
39405;BME280;25121;51.090;17.038;2023-04-25T12:46:06;99212.13;;;21.33;27.97
39405;BME280;25121;51.090;17.038;2023-04-25T12:47:37;99218.50;;;21.49;27.70
39405;BME280;25121;51.090;17.038;2023-04-25T12:49:11;99206.75;;;21.48;27.90
39405;BME280;25121;51.090;17.038;2023-04-25T12:50:39;99207.53;;;21.44;28.36
39405;BME280;25121;51.090;17.038;2023-04-25T12:52:01;99210.25;;;21.39;28.27
39405;BME280;25121;51.090;17.038;2023-04-25T12:53:25;99210.44;;;21.17;28.50
39405;BME280;25121;51.090;17.038;2023-04-25T12:54:48;99207.31;;;20.98;28.09
39405;BME280;25121;51.090;17.038;2023-04-25T12:56:10;99210.00;;;20.88;27.82
39405;BME280;25121;51.090;17.038;2023-04-25T12:57:33;99204.97;;;20.69;27.84
39405;BME280;25121;51.090;17.038;2023-04-25T12:59:07;99196.16;;;20.57;27.80
39405;BME280;25121;51.090;17.038;2023-04-25T13:00:36;99203.19;;;20.53;28.00
39405;BME280;25121;51.090;17.038;2023-04-25T13:02:02;99199.91;;;20.51;28.08
39405;BME280;25121;51.090;17.038;2023-04-25T13:03:33;99203.97;;;20.48;28.33
39405;BME280;25121;51.090;17.038;2023-04-25T13:05:00;99198.50;;;20.43;28.02
39405;BME280;25121;51.090;17.038;2023-04-25T13:06:25;99197.31;;;20.34;28.35
39405;BME280;25121;51.090;17.038;2023-04-25T13:07:49;99196.22;;;20.30;28.46
39405;BME280;25121;51.090;17.038;2023-04-25T13:09:15;99199.22;;;20.33;28.25
39405;BME280;25121;51.090;17.038;2023-04-25T13:10:40;99199.22;;;20.33;28.32
39405;BME280;25121;51.090;17.038;2023-04-25T13:12:02;99207.16;;;20.35;28.21
39405;BME280;25121;51.090;17.038;2023-04-25T13:13:30;99199.75;;;20.30;28.40
39405;BME280;25121;51.090;17.038;2023-04-25T13:15:08;99199.47;;;20.32;28.04
39405;BME280;25121;51.090;17.038;2023-04-25T13:16:35;99215.84;;;20.32;28.46
39405;BME280;25121;51.090;17.038;2023-04-25T13:17:59;99210.16;;;20.33;28.84
39405;BME280;25121;51.090;17.038;2023-04-25T13:19:25;99194.81;;;20.27;29.01
39405;BME280;25121;51.090;17.038;2023-04-25T13:20:55;99204.22;;;20.47;29.56
39405;BME280;25121;51.090;17.038;2023-04-25T13:22:18;99202.91;;;20.54;29.17
39405;BME280;25121;51.090;17.038;2023-04-25T13:23:41;99211.22;;;20.64;28.65
39405;BME280;25121;51.090;17.038;2023-04-25T13:25:04;99212.03;;;20.60;28.30
39405;BME280;25121;51.090;17.038;2023-04-25T13:26:27;99207.19;;;20.40;28.65
39405;BME280;25121;51.090;17.038;2023-04-25T13:27:52;99199.06;;;20.13;29.05
39405;BME280;25121;51.090;17.038;2023-04-25T13:29:14;99206.31;;;20.02;28.99
39405;BME280;25121;51.090;17.038;2023-04-25T13:30:37;99213.63;;;19.96;29.07
39405;BME280;25121;51.090;17.038;2023-04-25T13:32:02;99205.22;;;19.98;28.75
39405;BME280;25121;51.090;17.038;2023-04-25T13:33:31;99204.19;;;20.09;28.39
39405;BME280;25121;51.090;17.038;2023-04-25T13:34:57;99202.38;;;20.15;28.15
39405;BME280;25121;51.090;17.038;2023-04-25T13:36:22;99207.06;;;20.25;28.00
39405;BME280;25121;51.090;17.038;2023-04-25T13:37:56;99201.41;;;20.31;27.99
39405;BME280;25121;51.090;17.038;2023-04-25T13:39:23;99204.72;;;20.38;27.76
39405;BME280;25121;51.090;17.038;2023-04-25T13:40:46;99210.53;;;20.47;27.92
39405;BME280;25121;51.090;17.038;2023-04-25T13:42:08;99204.22;;;20.47;27.96
39405;BME280;25121;51.090;17.038;2023-04-25T13:43:37;99218.81;;;20.57;27.88
39405;BME280;25121;51.090;17.038;2023-04-25T13:44:59;99213.09;;;20.59;28.03
39405;BME280;25121;51.090;17.038;2023-04-25T13:46:22;99206.75;;;20.53;27.95
39405;BME280;25121;51.090;17.038;2023-04-25T13:48:04;99210.63;;;20.57;28.16
39405;BME280;25121;51.090;17.038;2023-04-25T13:49:33;99218.81;;;20.57;28.40
39405;BME280;25121;51.090;17.038;2023-04-25T13:50:55;99217.09;;;20.51;28.11
39405;BME280;25121;51.090;17.038;2023-04-25T13:52:18;99213.50;;;20.46;28.18
39405;BME280;25121;51.090;17.038;2023-04-25T13:53:40;99225.22;;;20.41;28.38
39405;BME280;25121;51.090;17.038;2023-04-25T13:55:06;99227.06;;;20.35;28.12
39405;BME280;25121;51.090;17.038;2023-04-25T13:56:29;99225.38;;;20.29;28.13
39405;BME280;25121;51.090;17.038;2023-04-25T13:57:54;99228.38;;;20.28;28.31
39405;BME280;25121;51.090;17.038;2023-04-25T13:59:16;99218.44;;;20.16;28.57
39405;BME280;25121;51.090;17.038;2023-04-25T14:00:42;99216.03;;;20.20;28.89
39405;BME280;25121;51.090;17.038;2023-04-25T14:02:07;99223.69;;;20.23;28.71
39405;BME280;25121;51.090;17.038;2023-04-25T14:03:58;99210.78;;;20.13;28.88
39405;BME280;25121;51.090;17.038;2023-04-25T14:06:16;99202.63;;;20.13;28.75
39405;BME280;25121;51.090;17.038;2023-04-25T14:07:46;99223.34;;;20.14;29.16
39405;BME280;25121;51.090;17.038;2023-04-25T14:09:13;99221.66;;;20.08;29.03
39405;BME280;25121;51.090;17.038;2023-04-25T14:10:52;99211.47;;;19.98;29.04
39405;BME280;25121;51.090;17.038;2023-04-25T14:12:30;99217.66;;;19.89;29.13
39405;BME280;25121;51.090;17.038;2023-04-25T14:13:55;99222.44;;;19.76;29.10
39405;BME280;25121;51.090;17.038;2023-04-25T14:15:19;99215.13;;;19.60;29.40
39405;BME280;25121;51.090;17.038;2023-04-25T14:16:42;99219.97;;;19.53;29.42
39405;BME280;25121;51.090;17.038;2023-04-25T14:18:11;99234.38;;;19.48;29.45
39405;BME280;25121;51.090;17.038;2023-04-25T14:19:52;99221.91;;;19.30;29.43
39405;BME280;25121;51.090;17.038;2023-04-25T14:21:20;99229.28;;;19.35;29.83
39405;BME280;25121;51.090;17.038;2023-04-25T14:22:44;99228.91;;;19.26;29.76
39405;BME280;25121;51.090;17.038;2023-04-25T14:24:08;99228.91;;;19.26;29.99
39405;BME280;25121;51.090;17.038;2023-04-25T14:25:33;99219.28;;;19.19;29.95
39405;BME280;25121;51.090;17.038;2023-04-25T14:26:59;99234.31;;;19.21;30.43
39405;BME280;25121;51.090;17.038;2023-04-25T14:28:21;99230.50;;;19.22;30.14
39405;BME280;25121;51.090;17.038;2023-04-25T14:29:44;99220.94;;;19.20;30.19
39405;BME280;25121;51.090;17.038;2023-04-25T14:31:10;99246.25;;;19.20;30.29
39405;BME280;25121;51.090;17.038;2023-04-25T14:32:31;99230.22;;;19.02;30.31
39405;BME280;25121;51.090;17.038;2023-04-25T14:33:55;99234.22;;;18.94;30.42
39405;BME280;25121;51.090;17.038;2023-04-25T14:35:19;99242.53;;;18.87;30.41
39405;BME280;25121;51.090;17.038;2023-04-25T14:36:46;99244.97;;;18.84;30.77
39405;BME280;25121;51.090;17.038;2023-04-25T14:38:12;99240.84;;;18.81;30.80
39405;BME280;25121;51.090;17.038;2023-04-25T14:39:42;99239.34;;;18.73;30.71
39405;BME280;25121;51.090;17.038;2023-04-25T14:41:08;99249.06;;;18.69;30.61
39405;BME280;25121;51.090;17.038;2023-04-25T14:42:45;99237.38;;;18.52;30.77
39405;BME280;25121;51.090;17.038;2023-04-25T14:44:10;99239.19;;;18.46;30.91
39405;BME280;25121;51.090;17.038;2023-04-25T14:45:53;99232.19;;;18.34;30.94
39405;BME280;25121;51.090;17.038;2023-04-25T14:47:59;99239.34;;;18.40;31.12
39405;BME280;25121;51.090;17.038;2023-04-25T14:56:14;99243.28;;;18.15;31.52
39405;BME280;25121;51.090;17.038;2023-04-25T15:07:07;99263.50;;;17.50;32.80
39405;BME280;25121;51.090;17.038;2023-04-25T15:12:38;99276.81;;;16.99;33.56
39405;BME280;25121;51.090;17.038;2023-04-25T15:14:01;99276.34;;;16.91;33.95
39405;BME280;25121;51.090;17.038;2023-04-25T15:15:50;99281.06;;;16.84;34.07
39405;BME280;25121;51.090;17.038;2023-04-25T15:17:25;99275.72;;;16.65;34.28
39405;BME280;25121;51.090;17.038;2023-04-25T15:18:56;99291.06;;;16.60;34.45
39405;BME280;25121;51.090;17.038;2023-04-25T15:20:20;99295.97;;;16.51;34.57
39405;BME280;25121;51.090;17.038;2023-04-25T15:21:46;99292.19;;;16.40;34.83
39405;BME280;25121;51.090;17.038;2023-04-25T15:23:08;99297.13;;;16.31;35.01
39405;BME280;25121;51.090;17.038;2023-04-25T15:24:38;99299.56;;;16.21;35.14
39405;BME280;25121;51.090;17.038;2023-04-25T15:26:08;99295.53;;;16.12;35.18
39405;BME280;25121;51.090;17.038;2023-04-25T15:27:36;99292.06;;;16.05;35.24
39405;BME280;25121;51.090;17.038;2023-04-25T15:29:21;99297.63;;;15.98;35.42
39405;BME280;25121;51.090;17.038;2023-04-25T15:31:26;99312.81;;;15.99;35.51
39405;BME280;25121;51.090;17.038;2023-04-25T15:33:12;99308.53;;;15.91;35.66
39405;BME280;25121;51.090;17.038;2023-04-25T15:37:29;99289.28;;;15.81;35.80
39405;BME280;25121;51.090;17.038;2023-04-25T15:37:38;99301.41;;;15.79;35.96
39405;BME280;25121;51.090;17.038;2023-04-25T15:41:17;99295.47;;;15.70;36.11
39405;BME280;25121;51.090;17.038;2023-04-25T15:42:44;99313.06;;;15.79;36.14
39405;BME280;25121;51.090;17.038;2023-04-25T15:44:15;99304.34;;;15.77;36.27
39405;BME280;25121;51.090;17.038;2023-04-25T15:45:50;99313.22;;;15.84;36.61
39405;BME280;25121;51.090;17.038;2023-04-25T15:47:15;99307.19;;;15.82;36.79
39405;BME280;25121;51.090;17.038;2023-04-25T15:48:38;99306.38;;;15.82;36.63
39405;BME280;25121;51.090;17.038;2023-04-25T15:50:43;99297.88;;;15.78;36.70
39405;BME280;25121;51.090;17.038;2023-04-25T15:55:11;99337.59;;;15.66;37.25
39405;BME280;25121;51.090;17.038;2023-04-25T15:56:45;99333.44;;;15.45;38.49
39405;BME280;25121;51.090;17.038;2023-04-25T15:58:31;99328.63;;;15.28;39.70
39405;BME280;25121;51.090;17.038;2023-04-25T16:09:54;99329.81;;;14.39;43.89
39405;BME280;25121;51.090;17.038;2023-04-25T16:15:25;99339.00;;;14.31;44.76
39405;BME280;25121;51.090;17.038;2023-04-25T18:07:07;99483.03;;;12.25;51.03
39405;BME280;25121;51.090;17.038;2023-04-25T18:21:40;99487.75;;;11.82;51.52
39405;BME280;25121;51.090;17.038;2023-04-25T18:23:37;99509.19;;;11.90;51.45
39405;BME280;25121;51.090;17.038;2023-04-25T18:26:33;99498.09;;;11.78;51.65
39405;BME280;25121;51.090;17.038;2023-04-25T18:27:53;99490.22;;;11.77;51.47
39405;BME280;25121;51.090;17.038;2023-04-25T18:29:30;99505.53;;;11.76;51.69
39405;BME280;25121;51.090;17.038;2023-04-25T18:31:03;99514.66;;;11.82;51.81
39405;BME280;25121;51.090;17.038;2023-04-25T18:32:38;99505.72;;;11.75;51.90
39405;BME280;25121;51.090;17.038;2023-04-25T18:34:16;99511.09;;;11.75;51.67
39405;BME280;25121;51.090;17.038;2023-04-25T18:35:43;99512.16;;;11.74;51.84
39405;BME280;25121;51.090;17.038;2023-04-25T18:46:45;99537.41;;;11.73;51.51
39405;BME280;25121;51.090;17.038;2023-04-25T18:48:15;99528.44;;;11.66;51.58
39405;BME280;25121;51.090;17.038;2023-04-25T18:50:11;99527.81;;;11.63;51.66
39405;BME280;25121;51.090;17.038;2023-04-25T18:51:36;99540.47;;;11.70;51.57
39405;BME280;25121;51.090;17.038;2023-04-25T18:52:59;99541.31;;;11.70;51.74
39405;BME280;25121;51.090;17.038;2023-04-25T18:54:30;99534.66;;;11.66;52.01
39405;BME280;25121;51.090;17.038;2023-04-25T18:55:55;99539.22;;;11.66;52.03
39405;BME280;25121;51.090;17.038;2023-04-25T18:57:18;99544.38;;;11.67;52.21
39405;BME280;25121;51.090;17.038;2023-04-25T18:58:54;99542.56;;;11.68;52.00
39405;BME280;25121;51.090;17.038;2023-04-25T19:00:20;99531.09;;;11.59;52.01
39405;BME280;25121;51.090;17.038;2023-04-25T19:01:49;99540.22;;;11.64;51.91
39405;BME280;25121;51.090;17.038;2023-04-25T19:03:30;99536.66;;;11.57;51.84
39405;BME280;25121;51.090;17.038;2023-04-25T19:05:16;99532.72;;;11.60;52.15
39405;BME280;25121;51.090;17.038;2023-04-25T19:06:42;99543.91;;;11.57;52.16
39405;BME280;25121;51.090;17.038;2023-04-25T19:08:18;99543.25;;;11.55;52.01
39405;BME280;25121;51.090;17.038;2023-04-25T19:10:06;99551.97;;;11.57;52.17
39405;BME280;25121;51.090;17.038;2023-04-25T19:20:32;99557.69;;;11.47;51.81
39405;BME280;25121;51.090;17.038;2023-04-25T19:22:08;99552.69;;;11.44;51.64
39405;BME280;25121;51.090;17.038;2023-04-25T19:23:38;99555.56;;;11.42;51.97
39405;BME280;25121;51.090;17.038;2023-04-25T19:25:01;99542.25;;;11.34;51.61